sensor_id;sensor_type;location;lat;lon;timestamp;P1;durP1;ratioP1;P2;durP2;ratioP2
30337;SDS011;17143;51.888;5.408;2023-07-20T00:01:01;7.57;;;4.47;;
30337;SDS011;17143;51.888;5.408;2023-07-20T00:16:04;4.30;;;3.37;;
30337;SDS011;17143;51.888;5.408;2023-07-20T00:31:06;3.73;;;2.97;;
30337;SDS011;17143;51.888;5.408;2023-07-20T00:46:08;4.87;;;2.93;;
30337;SDS011;17143;51.888;5.408;2023-07-20T01:01:11;3.10;;;2.70;;
30337;SDS011;17143;51.888;5.408;2023-07-20T01:16:13;3.80;;;2.37;;
30337;SDS011;17143;51.888;5.408;2023-07-20T01:31:17;3.40;;;2.30;;
30337;SDS011;17143;51.888;5.408;2023-07-20T01:46:25;3.13;;;2.00;;
30337;SDS011;17143;51.888;5.408;2023-07-20T02:01:27;1.77;;;1.60;;
30337;SDS011;17143;51.888;5.408;2023-07-20T02:16:29;1.90;;;1.73;;
30337;SDS011;17143;51.888;5.408;2023-07-20T02:31:32;1.73;;;1.40;;
30337;SDS011;17143;51.888;5.408;2023-07-20T02:46:36;1.77;;;1.60;;
30337;SDS011;17143;51.888;5.408;2023-07-20T03:01:38;1.77;;;1.67;;
30337;SDS011;17143;51.888;5.408;2023-07-20T03:16:40;2.07;;;1.43;;
30337;SDS011;17143;51.888;5.408;2023-07-20T03:31:42;2.13;;;1.30;;
30337;SDS011;17143;51.888;5.408;2023-07-20T03:46:44;2.30;;;1.80;;
30337;SDS011;17143;51.888;5.408;2023-07-20T04:01:47;2.03;;;1.73;;
30337;SDS011;17143;51.888;5.408;2023-07-20T04:16:49;4.10;;;2.97;;
30337;SDS011;17143;51.888;5.408;2023-07-20T04:31:51;3.53;;;2.90;;
30337;SDS011;17143;51.888;5.408;2023-07-20T04:46:53;3.50;;;2.67;;
30337;SDS011;17143;51.888;5.408;2023-07-20T05:01:55;3.90;;;2.83;;
30337;SDS011;17143;51.888;5.408;2023-07-20T05:16:57;3.67;;;2.80;;
30337;SDS011;17143;51.888;5.408;2023-07-20T05:32:00;3.27;;;2.80;;
30337;SDS011;17143;51.888;5.408;2023-07-20T05:47:02;3.97;;;3.13;;
30337;SDS011;17143;51.888;5.408;2023-07-20T06:02:04;3.80;;;3.10;;
30337;SDS011;17143;51.888;5.408;2023-07-20T06:17:07;2.90;;;2.40;;
30337;SDS011;17143;51.888;5.408;2023-07-20T06:32:09;3.47;;;2.73;;
30337;SDS011;17143;51.888;5.408;2023-07-20T06:47:11;2.00;;;1.60;;
30337;SDS011;17143;51.888;5.408;2023-07-20T07:02:13;1.30;;;1.20;;
30337;SDS011;17143;51.888;5.408;2023-07-20T07:17:15;1.47;;;1.13;;
30337;SDS011;17143;51.888;5.408;2023-07-20T07:32:17;0.93;;;0.70;;
30337;SDS011;17143;51.888;5.408;2023-07-20T07:47:19;0.80;;;0.50;;
30337;SDS011;17143;51.888;5.408;2023-07-20T08:02:21;0.60;;;0.60;;
30337;SDS011;17143;51.888;5.408;2023-07-20T08:17:23;0.40;;;0.40;;
30337;SDS011;17143;51.888;5.408;2023-07-20T08:32:25;0.50;;;0.50;;
30337;SDS011;17143;51.888;5.408;2023-07-20T08:47:27;0.30;;;0.30;;
30337;SDS011;17143;51.888;5.408;2023-07-20T09:02:30;1.70;;;0.70;;
30337;SDS011;17143;51.888;5.408;2023-07-20T09:17:37;0.80;;;0.57;;
30337;SDS011;17143;51.888;5.408;2023-07-20T09:32:39;0.53;;;0.53;;
30337;SDS011;17143;51.888;5.408;2023-07-20T09:47:42;0.70;;;0.40;;
30337;SDS011;17143;51.888;5.408;2023-07-20T10:02:45;1.23;;;0.63;;
30337;SDS011;17143;51.888;5.408;2023-07-20T10:17:49;0.63;;;0.60;;
30337;SDS011;17143;51.888;5.408;2023-07-20T10:32:59;1.23;;;0.60;;
30337;SDS011;17143;51.888;5.408;2023-07-20T10:48:03;0.60;;;0.60;;
30337;SDS011;17143;51.888;5.408;2023-07-20T11:03:06;0.60;;;0.60;;
30337;SDS011;17143;51.888;5.408;2023-07-20T11:18:12;0.60;;;0.60;;
30337;SDS011;17143;51.888;5.408;2023-07-20T11:33:14;1.20;;;0.77;;
30337;SDS011;17143;51.888;5.408;2023-07-20T11:48:16;1.20;;;0.80;;
30337;SDS011;17143;51.888;5.408;2023-07-20T12:03:18;0.57;;;0.57;;
30337;SDS011;17143;51.888;5.408;2023-07-20T12:18:22;0.73;;;0.60;;
30337;SDS011;17143;51.888;5.408;2023-07-20T12:33:24;0.73;;;0.73;;
30337;SDS011;17143;51.888;5.408;2023-07-20T12:48:26;0.53;;;0.53;;
30337;SDS011;17143;51.888;5.408;2023-07-20T13:03:28;0.80;;;0.80;;
30337;SDS011;17143;51.888;5.408;2023-07-20T13:18:30;1.00;;;0.57;;
30337;SDS011;17143;51.888;5.408;2023-07-20T13:33:32;1.00;;;0.60;;
30337;SDS011;17143;51.888;5.408;2023-07-20T13:48:34;1.50;;;0.67;;
30337;SDS011;17143;51.888;5.408;2023-07-20T14:03:37;0.73;;;0.73;;
30337;SDS011;17143;51.888;5.408;2023-07-20T14:18:39;1.77;;;0.73;;
30337;SDS011;17143;51.888;5.408;2023-07-20T14:33:41;0.80;;;0.80;;
30337;SDS011;17143;51.888;5.408;2023-07-20T14:48:43;1.50;;;0.73;;
30337;SDS011;17143;51.888;5.408;2023-07-20T15:03:45;1.10;;;1.00;;
30337;SDS011;17143;51.888;5.408;2023-07-20T15:18:47;1.00;;;0.80;;
30337;SDS011;17143;51.888;5.408;2023-07-20T15:33:49;1.10;;;1.00;;
30337;SDS011;17143;51.888;5.408;2023-07-20T15:48:51;0.80;;;0.80;;
30337;SDS011;17143;51.888;5.408;2023-07-20T16:03:54;1.00;;;0.90;;
30337;SDS011;17143;51.888;5.408;2023-07-20T16:18:56;1.53;;;1.10;;
30337;SDS011;17143;51.888;5.408;2023-07-20T16:33:58;0.80;;;0.63;;
30337;SDS011;17143;51.888;5.408;2023-07-20T16:49:00;1.30;;;0.90;;
30337;SDS011;17143;51.888;5.408;2023-07-20T17:04:02;0.90;;;0.70;;
30337;SDS011;17143;51.888;5.408;2023-07-20T17:19:04;1.97;;;1.00;;
30337;SDS011;17143;51.888;5.408;2023-07-20T17:34:06;2.37;;;1.53;;
30337;SDS011;17143;51.888;5.408;2023-07-20T17:49:09;1.40;;;1.17;;
30337;SDS011;17143;51.888;5.408;2023-07-20T18:04:11;1.10;;;1.10;;
30337;SDS011;17143;51.888;5.408;2023-07-20T18:19:13;2.60;;;2.40;;
30337;SDS011;17143;51.888;5.408;2023-07-20T18:34:15;3.30;;;2.27;;
30337;SDS011;17143;51.888;5.408;2023-07-20T18:49:17;3.50;;;2.27;;
30337;SDS011;17143;51.888;5.408;2023-07-20T19:04:19;4.03;;;2.70;;
30337;SDS011;17143;51.888;5.408;2023-07-20T19:19:21;2.70;;;2.23;;
30337;SDS011;17143;51.888;5.408;2023-07-20T19:34:23;2.47;;;2.00;;
30337;SDS011;17143;51.888;5.408;2023-07-20T19:49:25;3.83;;;2.10;;
30337;SDS011;17143;51.888;5.408;2023-07-20T20:04:27;2.00;;;1.80;;
30337;SDS011;17143;51.888;5.408;2023-07-20T20:19:29;3.33;;;2.60;;
30337;SDS011;17143;51.888;5.408;2023-07-20T20:34:31;2.77;;;2.30;;
30337;SDS011;17143;51.888;5.408;2023-07-20T20:49:33;3.10;;;2.30;;
30337;SDS011;17143;51.888;5.408;2023-07-20T21:04:35;2.67;;;2.27;;
30337;SDS011;17143;51.888;5.408;2023-07-20T21:19:37;3.27;;;2.50;;
30337;SDS011;17143;51.888;5.408;2023-07-20T21:34:39;4.60;;;3.67;;
30337;SDS011;17143;51.888;5.408;2023-07-20T21:49:41;5.33;;;3.43;;
30337;SDS011;17143;51.888;5.408;2023-07-20T22:04:43;2.93;;;2.50;;
30337;SDS011;17143;51.888;5.408;2023-07-20T22:19:45;2.93;;;2.60;;
30337;SDS011;17143;51.888;5.408;2023-07-20T22:34:47;3.67;;;2.17;;
30337;SDS011;17143;51.888;5.408;2023-07-20T22:49:49;2.37;;;2.00;;
30337;SDS011;17143;51.888;5.408;2023-07-20T23:04:52;2.10;;;1.90;;
30337;SDS011;17143;51.888;5.408;2023-07-20T23:19:54;1.97;;;1.80;;
30337;SDS011;17143;51.888;5.408;2023-07-20T23:34:56;3.47;;;1.73;;
30337;SDS011;17143;51.888;5.408;2023-07-20T23:49:58;2.27;;;1.57;;
